Time;durP1;ratioP1;P1;durP2;ratioP2;P2;SDS_P1;SDS_P2;PMS_P1;PMS_P2;Temp;Humidity;BMP_temperature;BMP_pressure;BME280_temperature;BME280_humidity;BME280_pressure;Samples;Min_cycle;Max_cycle;Signal;HPM_P1;HPM_P2
2022/10/05 00:01:27;;;;;;;12.40;3.10;;;;;;;9.78;98.77;100124.41;104770;1277;68631;-71
2022/10/05 00:04:22;;;;;;;9.40;3.10;;;;;;;9.75;99.23;100131.61;104844;1276;74460;-72
2022/10/05 00:07:17;;;;;;;10.90;3.20;;;;;;;9.71;99.31;100136.41;104709;1276;60640;-73
2022/10/05 00:10:14;;;;;;;10.00;3.30;;;;;;;9.71;99.05;100145.86;104643;1276;60909;-74
2022/10/05 00:13:12;;;;;;;10.90;3.00;;;;;;;9.68;99.69;100144.26;104786;1271;74548;-74
2022/10/05 00:16:09;;;;;;;9.40;2.80;;;;;;;9.69;99.76;100144.04;105398;1268;68096;-74
2022/10/05 00:18:58;;;;;;;12.40;3.00;;;;;;;9.69;99.87;100133.75;105158;1268;74711;-74
2022/10/05 00:21:46;;;;;;;9.10;2.80;;;;;;;9.70;99.85;100123.27;105468;1271;61193;-72
2022/10/05 00:24:34;;;;;;;9.40;3.00;;;;;;;9.68;99.96;100119.98;105324;1268;62011;-72
2022/10/05 00:27:26;;;;;;;8.80;3.20;;;;;;;9.67;99.94;100117.08;105217;1271;74435;-74
2022/10/05 00:30:17;;;;;;;11.30;3.40;;;;;;;9.65;100.00;100111.19;105199;1268;67869;-74
2022/10/05 00:33:04;;;;;;;14.50;3.30;;;;;;;9.63;100.00;100114.22;105176;1267;73509;-74
2022/10/05 00:35:54;;;;;;;8.60;2.60;;;;;;;9.61;100.00;100117.50;105108;1271;60481;-73
2022/10/05 00:38:42;;;;;;;11.50;4.10;;;;;;;9.61;100.00;100112.42;105587;1268;61946;-73
2022/10/05 00:42:01;;;;;;;11.50;3.00;;;;;;;9.60;100.00;100101.14;105221;1268;74503;-72
2022/10/05 00:45:06;;;;;;;13.20;3.10;;;;;;;9.60;100.00;100105.94;105096;1268;69555;-74
2022/10/05 00:48:42;;;;;;;8.60;3.20;;;;;;;9.60;100.00;100098.98;105315;1271;72897;-71
2022/10/05 00:51:35;;;;;;;12.10;3.50;;;;;;;9.61;100.00;100094.81;105175;1268;61108;-73
2022/10/05 00:54:38;;;;;;;9.60;3.40;;;;;;;9.63;100.00;100090.96;105124;1267;62125;-74
2022/10/05 00:58:02;;;;;;;12.50;3.50;;;;;;;9.65;100.00;100089.79;105383;1268;75076;-73
2022/10/05 01:01:22;;;;;;;9.40;2.90;;;;;;;9.66;100.00;100087.35;104964;1276;68646;-74
2022/10/05 01:04:34;;;;;;;7.90;2.90;;;;;;;9.68;100.00;100085.50;104869;1276;73199;-71
2022/10/05 01:07:43;;;;;;;12.20;3.40;;;;;;;9.68;99.99;100069.52;104827;1276;60500;-72
2022/10/05 01:10:34;;;;;;;12.00;3.50;;;;;;;9.67;100.00;100061.66;104937;1276;60877;-71
2022/10/05 01:13:46;;;;;;;11.70;3.00;;;;;;;9.67;100.00;100069.80;104749;1275;247680;-73
2022/10/05 01:16:58;;;;;;;11.00;3.30;;;;;;;9.68;100.00;100064.41;104585;1282;69203;-74
2022/10/05 01:20:35;;;;;;;8.80;3.20;;;;;;;9.66;99.97;100069.64;104394;1282;72892;-74
2022/10/05 01:24:00;;;;;;;10.10;3.00;;;;;;;9.65;99.86;100068.48;104257;1282;60487;-73
2022/10/05 01:27:30;;;;;;;11.20;4.00;;;;;;;9.64;99.64;100076.70;104572;1281;61204;-72
2022/10/05 01:30:20;;;;;;;15.20;3.80;;;;;;;9.65;99.80;100078.04;104244;1281;75675;-72
2022/10/05 01:33:28;;;;;;;14.90;3.70;;;;;;;9.67;99.56;100074.77;104464;1280;66914;-72
2022/10/05 01:36:40;;;;;;;14.60;3.60;;;;;;;9.68;99.81;100076.46;104517;1281;72873;-73
2022/10/05 01:39:57;;;;;;;13.90;3.40;;;;;;;9.66;99.49;100077.44;104935;1275;60748;-72
2022/10/05 01:43:04;;;;;;;11.20;3.90;;;;;;;9.66;99.69;100069.88;105413;1275;60615;-72
2022/10/05 01:47:08;;;;;;;10.40;2.90;;;;;;;9.65;99.36;100072.77;105440;1274;74287;-73
2022/10/05 01:50:10;;;;;;;9.80;3.10;;;;;;;9.64;99.78;100068.26;104337;1281;69681;-74
2022/10/05 01:53:09;;;;;;;9.20;3.80;;;;;;;9.64;99.74;100066.47;104397;1281;71796;-73
2022/10/05 01:56:08;;;;;;;10.50;3.80;;;;;;;9.63;99.53;100067.24;104671;1276;61352;-74
2022/10/05 01:59:21;;;;;;;13.80;3.30;;;;;;;9.63;99.79;100063.33;104481;1276;60344;-72
2022/10/05 02:02:15;;;;;;;10.90;3.10;;;;;;;9.64;99.90;100056.77;104655;1276;75706;-72
2022/10/05 02:05:15;;;;;;;12.10;3.50;;;;;;;9.63;99.57;100047.63;104739;1276;68554;-73
2022/10/05 02:08:14;;;;;;;10.60;3.30;;;;;;;9.62;99.90;100051.38;104507;1280;74290;-73
2022/10/05 02:11:11;;;;;;;11.20;3.60;;;;;;;9.62;99.91;100048.05;104659;1278;60533;-73
2022/10/05 02:14:11;;;;;;;11.00;3.30;;;;;;;9.61;100.00;100049.90;104436;1277;61898;-73
2022/10/05 02:17:07;;;;;;;11.30;3.30;;;;;;;9.61;100.00;100045.77;104869;1278;72817;-73
2022/10/05 02:20:06;;;;;;;8.50;3.30;;;;;;;9.62;100.00;100033.17;104702;1276;67991;-75
2022/10/05 02:23:01;;;;;;;10.10;3.20;;;;;;;9.62;100.00;100025.00;104873;1278;73943;-73
2022/10/05 02:25:54;;;;;;;9.70;3.00;;;;;;;9.59;100.00;100018.64;105207;1268;60498;-73
2022/10/05 02:28:52;;;;;;;10.60;3.60;;;;;;;9.56;100.00;100012.33;105053;1269;61929;-72
2022/10/05 02:31:51;;;;;;;11.00;3.10;;;;;;;9.51;100.00;100005.61;105530;1267;74896;-74
2022/10/05 02:34:42;;;;;;;12.30;4.00;;;;;;;9.46;100.00;100006.00;105115;1268;69580;-72
2022/10/05 02:37:57;;;;;;;10.30;3.30;;;;;;;9.38;100.00;99995.22;105302;1268;72447;-71
2022/10/05 02:41:07;;;;;;;10.60;3.50;;;;;;;9.31;100.00;99993.97;105325;1268;60440;-71
2022/10/05 02:44:20;;;;;;;10.10;3.10;;;;;;;9.26;100.00;99995.55;105288;1268;60444;-73
2022/10/05 02:47:28;;;;;;;11.60;3.40;;;;;;;9.21;100.00;99994.13;105300;1268;74349;-72
2022/10/05 02:50:30;;;;;;;12.30;4.00;;;;;;;9.18;100.00;99990.65;105479;1267;68346;-72
2022/10/05 02:53:52;;;;;;;10.90;3.70;;;;;;;9.16;100.00;99991.84;105405;1268;72235;-73
2022/10/05 02:57:09;;;;;;;10.50;3.50;;;;;;;9.14;100.00;99989.38;105398;1268;60500;-75
2022/10/05 03:00:03;;;;;;;9.70;3.60;;;;;;;9.13;100.00;99987.86;105343;1267;62384;-73
2022/10/05 03:03:28;;;;;;;12.00;4.20;;;;;;;9.12;100.00;99979.56;105308;1268;72466;-74
2022/10/05 03:06:37;;;;;;;12.90;3.90;;;;;;;9.13;100.00;99977.77;105067;1268;67434;-74
2022/10/05 03:09:33;;;;;;;15.30;4.10;;;;;;;9.13;100.00;99975.10;105095;1268;72564;-73
2022/10/05 03:12:36;;;;;;;12.50;3.80;;;;;;;9.12;100.00;99982.91;105007;1268;60370;-76
2022/10/05 03:15:37;;;;;;;10.70;4.10;;;;;;;9.13;100.00;99985.73;105326;1268;60329;-74
2022/10/05 03:19:21;;;;;;;10.80;4.00;;;;;;;9.12;100.00;99979.56;105108;1268;74146;-76
2022/10/05 03:22:56;;;;;;;8.50;3.80;;;;;;;9.12;100.00;99975.52;105219;1268;71807;-74
2022/10/05 03:25:59;;;;;;;11.80;3.90;;;;;;;9.13;100.00;99979.16;105629;1268;73077;-74
2022/10/05 03:29:28;;;;;;;14.80;3.80;;;;;;;9.13;100.00;99977.39;105415;1268;60588;-74
2022/10/05 03:32:44;;;;;;;13.00;4.50;;;;;;;9.14;100.00;99971.66;105553;1268;60686;-77
2022/10/05 03:36:00;;;;;;;11.20;4.00;;;;;;;9.14;100.00;99970.91;105403;1271;74558;-76
2022/10/05 03:39:13;;;;;;;14.30;4.30;;;;;;;9.14;100.00;99969.34;105116;1271;65563;-75
2022/10/05 03:42:54;;;;;;;12.90;4.10;;;;;;;9.14;100.00;99969.92;105261;1271;72671;-77
2022/10/05 03:46:15;;;;;;;11.60;4.50;;;;;;;9.13;100.00;99974.38;104975;1271;60449;-74
2022/10/05 03:49:14;;;;;;;10.80;4.10;;;;;;;9.12;100.00;99986.84;105403;1271;60672;-75
2022/10/05 03:52:36;;;;;;;11.60;3.70;;;;;;;9.11;100.00;99982.31;105063;1271;74753;-77
2022/10/05 03:55:42;;;;;;;10.70;4.00;;;;;;;9.11;100.00;99979.84;105178;1271;67775;-77
2022/10/05 03:58:41;;;;;;;8.70;3.80;;;;;;;9.10;100.00;99973.55;105064;1274;71594;-76
2022/10/05 04:02:05;;;;;;;12.30;3.80;;;;;;;9.08;100.00;99967.29;104767;1274;60740;-76
2022/10/05 04:05:04;;;;;;;13.00;4.40;;;;;;;9.07;100.00;99963.00;104779;1274;60910;-75
2022/10/05 04:08:06;;;;;;;8.20;3.30;;;;;;;9.04;100.00;99965.80;105055;1274;72682;-76
2022/10/05 04:11:03;;;;;;;10.30;3.70;;;;;;;9.02;100.00;99965.05;105189;1271;67796;-74
2022/10/05 04:14:11;;;;;;;8.10;3.50;;;;;;;9.01;100.00;99965.70;105030;1271;71311;-76
2022/10/05 04:17:12;;;;;;;12.10;4.00;;;;;;;8.99;100.00;99959.63;104851;1272;60937;-74
2022/10/05 04:20:25;;;;;;;8.50;3.70;;;;;;;9.00;100.00;99955.88;105036;1271;60477;-73
2022/10/05 04:23:46;;;;;;;10.10;4.40;;;;;;;8.99;100.00;99951.45;104973;1271;74878;-74
2022/10/05 04:26:56;;;;;;;13.70;4.50;;;;;;;9.02;100.00;99954.83;105166;1271;67443;-73
2022/10/05 04:30:01;;;;;;;11.30;4.10;;;;;;;9.05;100.00;99957.94;105096;1267;74382;-73
2022/10/05 04:32:56;;;;;;;12.10;4.00;;;;;;;9.09;100.00;99955.54;105242;1268;60409;-73
2022/10/05 04:36:07;;;;;;;11.00;4.40;;;;;;;9.11;100.00;99950.42;105452;1267;60552;-73
2022/10/05 04:39:24;;;;;;;12.60;4.10;;;;;;;9.14;100.00;99954.33;105544;1267;74033;-73
2022/10/05 04:43:06;;;;;;;12.10;5.20;;;;;;;9.16;100.00;99938.73;106242;1267;66034;-74
2022/10/05 04:46:31;;;;;;;12.90;4.00;;;;;;;9.18;99.95;99929.59;105935;1267;74486;-77
2022/10/05 04:49:49;;;;;;;9.40;3.80;;;;;;;9.20;100.00;99919.16;105280;1268;60558;-75
2022/10/05 04:53:10;;;;;;;15.90;5.20;;;;;;;9.23;99.76;99911.19;105635;1268;61992;-73
2022/10/05 04:56:09;;;;;;;10.30;4.10;;;;;;;9.24;99.78;99908.98;105626;1268;74114;-74
2022/10/05 04:59:53;;;;;;;13.20;4.10;;;;;;;9.25;99.60;99893.90;105130;1268;68166;-76
2022/10/05 05:02:46;;;;;;;8.70;3.90;;;;;;;9.25;99.50;99895.42;105199;1268;74410;-75
2022/10/05 05:06:09;;;;;;;10.30;3.90;;;;;;;9.25;99.29;99890.11;105119;1268;60596;-74
2022/10/05 05:09:33;;;;;;;8.90;3.80;;;;;;;9.27;99.62;99881.84;105403;1268;60384;-74
2022/10/05 05:13:04;;;;;;;10.50;4.00;;;;;;;9.28;99.53;99891.64;105610;1268;74160;-73
2022/10/05 05:16:17;;;;;;;9.70;4.00;;;;;;;9.29;99.31;99903.42;105504;1267;68033;-74
2022/10/05 05:19:30;;;;;;;8.80;3.60;;;;;;;9.32;99.10;99915.42;105400;1268;74176;-72
2022/10/05 05:22:27;;;;;;;10.60;4.20;;;;;;;9.35;99.34;99926.55;104925;1273;60472;-74
2022/10/05 05:25:38;;;;;;;8.70;4.10;;;;;;;9.38;98.86;99922.63;105181;1273;62079;-74
2022/10/05 05:28:46;;;;;;;9.30;4.40;;;;;;;9.41;98.88;99922.08;105283;1272;72893;-73
2022/10/05 05:32:12;;;;;;;12.50;3.90;;;;;;;9.44;98.36;99924.45;105550;1273;68267;-73
2022/10/05 05:35:30;;;;;;;9.90;4.00;;;;;;;9.49;98.26;99929.39;104876;1273;73430;-74
2022/10/05 05:38:43;;;;;;;12.80;4.30;;;;;;;9.55;97.85;99928.23;105139;1274;62079;-77
2022/10/05 05:42:19;;;;;;;18.30;4.50;;;;;;;9.60;97.89;99920.79;104906;1274;60369;-74
2022/10/05 05:45:32;;;;;;;14.10;5.20;;;;;;;9.69;97.12;99931.77;104872;1273;74386;-73
2022/10/05 05:48:31;;;;;;;11.20;4.10;;;;;;;9.77;96.54;99917.38;105105;1273;67270;-72
2022/10/05 05:51:42;;;;;;;11.90;4.30;;;;;;;9.87;95.88;99904.55;104932;1273;71309;-73
2022/10/05 05:54:38;;;;;;;9.30;3.90;;;;;;;9.99;95.24;99903.67;105093;1270;61309;-73
2022/10/05 05:57:59;;;;;;;12.70;4.20;;;;;;;10.10;94.79;99904.52;105044;1270;62097;-75
2022/10/05 06:01:19;;;;;;;12.30;4.00;;;;;;;10.22;93.67;99911.55;105480;1269;73640;-72
2022/10/05 06:04:33;;;;;;;10.00;4.20;;;;;;;10.35;92.48;99911.83;105487;1270;68129;-72
2022/10/05 06:07:28;;;;;;;14.00;4.30;;;;;;;10.46;91.99;99909.71;105294;1270;71602;-73
2022/10/05 06:10:40;;;;;;;10.00;3.70;;;;;;;10.61;91.38;99910.52;105178;1270;61548;-74
2022/10/05 06:13:39;;;;;;;11.10;3.80;;;;;;;10.71;90.55;99909.37;105077;1270;60565;-75
2022/10/05 06:17:05;;;;;;;15.60;4.20;;;;;;;10.76;90.23;99901.10;106136;1267;74031;-73
2022/10/05 06:19:58;;;;;;;12.30;4.60;;;;;;;10.82;89.76;99896.95;105260;1267;69361;-70
2022/10/05 06:22:59;;;;;;;11.10;4.40;;;;;;;10.86;89.74;99891.09;105287;1267;74487;-75
2022/10/05 06:26:38;;;;;;;11.60;4.10;;;;;;;10.87;89.15;99891.49;105158;1270;60361;-74
2022/10/05 06:29:49;;;;;;;11.10;3.80;;;;;;;10.92;88.80;99897.91;105145;1270;60537;-75
2022/10/05 06:33:00;;;;;;;11.20;3.90;;;;;;;10.96;89.09;99898.80;105291;1271;72746;-74
2022/10/05 06:36:05;;;;;;;11.10;4.20;;;;;;;11.00;88.59;99894.10;105183;1270;68488;-73
2022/10/05 06:39:23;;;;;;;11.70;4.30;;;;;;;11.04;88.51;99895.35;105123;1271;71572;-74
2022/10/05 06:42:39;;;;;;;12.30;4.60;;;;;;;11.00;88.05;99899.89;105049;1271;61311;-74
2022/10/05 06:45:51;;;;;;;10.80;4.00;;;;;;;10.96;88.35;99904.52;105200;1270;60971;-76
2022/10/05 06:49:45;;;;;;;11.00;3.90;;;;;;;10.93;88.80;99905.25;105797;1270;74310;-77
2022/10/05 06:53:27;;;;;;;16.30;4.60;;;;;;;10.95;88.62;99898.02;105826;1270;65624;-75
2022/10/05 06:57:00;;;;;;;13.00;4.50;;;;;;;10.99;88.56;99906.56;105298;1270;73219;-74
2022/10/05 07:00:03;;;;;;;12.20;4.50;;;;;;;11.08;88.52;99911.51;105340;1270;60612;-74
2022/10/05 07:03:27;;;;;;;13.30;4.30;;;;;;;11.17;87.77;99917.19;105094;1271;60465;-75
2022/10/05 07:06:37;;;;;;;15.90;4.80;;;;;;;11.43;86.77;99914.26;105226;1271;74579;-75
2022/10/05 07:09:31;;;;;;;12.60;4.40;;;;;;;11.41;86.38;99911.77;105351;1269;69468;-73
2022/10/05 07:12:57;;;;;;;12.50;4.70;;;;;;;11.40;86.35;99903.35;105089;1271;72875;-74
2022/10/05 07:16:03;;;;;;;12.20;4.60;;;;;;;11.39;86.38;99902.20;105579;1270;60461;-75
2022/10/05 07:19:33;;;;;;;11.50;4.50;;;;;;;11.41;86.46;99917.80;105149;1270;62396;-74
2022/10/05 07:22:27;;;;;;;11.90;4.40;;;;;;;11.43;86.44;99921.75;105375;1269;74771;-74
2022/10/05 07:25:27;;;;;;;12.60;4.30;;;;;;;11.39;86.54;99917.98;105278;1271;68593;-74
2022/10/05 07:28:34;;;;;;;10.80;4.40;;;;;;;11.40;86.61;99914.77;105434;1270;72864;-74
2022/10/05 07:31:34;;;;;;;10.30;4.10;;;;;;;11.37;86.70;99919.27;105442;1270;61082;-74
2022/10/05 07:34:57;;;;;;;13.70;4.80;;;;;;;11.33;87.01;99914.81;105102;1270;61110;-76
2022/10/05 07:37:53;;;;;;;10.50;4.00;;;;;;;11.31;86.91;99906.92;105258;1270;74203;-75
2022/10/05 07:40:53;;;;;;;9.10;4.50;;;;;;;11.31;86.83;99904.98;105318;1270;69852;-74
2022/10/05 07:44:07;;;;;;;10.10;4.00;;;;;;;11.32;86.85;99900.98;105168;1270;72724;-73
2022/10/05 07:47:14;;;;;;;10.90;3.90;;;;;;;11.46;86.63;99901.46;105316;1270;60479;-74
2022/10/05 07:50:14;;;;;;;11.60;4.50;;;;;;;11.57;85.88;99900.16;105199;1270;61975;-76
2022/10/05 07:53:17;;;;;;;14.20;4.50;;;;;;;11.75;85.80;99889.00;105207;1270;72956;-75
2022/10/05 07:56:35;;;;;;;10.00;4.50;;;;;;;11.95;84.56;99883.33;105405;1270;69012;-73
2022/10/05 07:59:37;;;;;;;13.90;4.40;;;;;;;12.08;83.61;99891.75;105059;1271;74738;-73
2022/10/05 08:02:50;;;;;;;11.40;4.40;;;;;;;12.18;82.85;99902.98;105493;1270;60572;-73
2022/10/05 08:05:43;;;;;;;13.40;5.10;;;;;;;12.35;82.55;99911.33;105450;1270;60451;-74
2022/10/05 08:09:46;;;;;;;11.40;4.00;;;;;;;12.48;81.93;99897.00;104971;1270;74524;-75
2022/10/05 08:13:17;;;;;;;13.80;4.50;;;;;;;12.51;80.54;99899.06;104772;1276;68498;-73
2022/10/05 08:16:13;;;;;;;12.30;4.30;;;;;;;12.54;80.29;99898.59;105066;1276;73287;-72
2022/10/05 08:19:39;;;;;;;13.80;4.70;;;;;;;12.61;80.02;99904.95;104781;1276;60537;-71
2022/10/05 08:22:36;;;;;;;11.60;4.50;;;;;;;12.79;79.81;99908.52;104642;1276;62194;-72
2022/10/05 08:25:43;;;;;;;9.80;4.30;;;;;;;12.97;79.32;99919.96;104821;1274;75606;-72
2022/10/05 08:28:42;;;;;;;10.80;5.00;;;;;;;13.13;78.32;99922.73;105031;1274;69573;-72
2022/10/05 08:31:36;;;;;;;12.60;4.80;;;;;;;13.44;77.72;99924.02;105117;1276;74488;-72
2022/10/05 08:34:44;;;;;;;9.80;4.20;;;;;;;13.82;76.25;99918.61;104762;1276;60456;-74
2022/10/05 08:37:38;;;;;;;8.60;3.70;;;;;;;14.34;74.19;99908.48;105013;1275;61035;-72
2022/10/05 08:41:10;;;;;;;11.40;4.40;;;;;;;15.04;71.55;99908.20;104814;1274;74711;-71
2022/10/05 08:44:16;;;;;;;10.60;4.30;;;;;;;15.57;68.28;99904.93;104744;1274;69481;-73
2022/10/05 08:47:26;;;;;;;9.60;3.90;;;;;;;15.61;66.66;99899.05;105180;1270;72817;-75
2022/10/05 08:50:30;;;;;;;9.20;3.90;;;;;;;15.77;67.04;99892.10;105215;1270;60575;-71
2022/10/05 08:53:46;;;;;;;10.30;4.20;;;;;;;15.73;65.90;99894.68;105716;1270;61125;-73
2022/10/05 08:57:04;;;;;;;11.50;4.50;;;;;;;15.69;65.93;99896.66;105502;1269;74331;-72
2022/10/05 09:00:09;;;;;;;11.20;4.20;;;;;;;15.74;66.18;99898.88;105325;1270;66524;-71
2022/10/05 09:03:33;;;;;;;12.30;3.90;;;;;;;15.70;66.03;99890.73;105401;1269;74377;-72
2022/10/05 09:06:42;;;;;;;13.30;4.30;;;;;;;15.53;66.29;99891.70;105384;1270;60440;-71
2022/10/05 09:09:48;;;;;;;9.90;3.80;;;;;;;15.16;67.18;99886.45;105443;1270;62047;-72
2022/10/05 09:13:20;;;;;;;9.70;3.90;;;;;;;14.94;68.02;99893.10;105366;1270;75161;-73
2022/10/05 09:16:51;;;;;;;13.00;4.30;;;;;;;14.78;68.76;99900.23;105471;1269;66418;-72
2022/10/05 09:20:07;;;;;;;11.10;3.90;;;;;;;14.72;69.27;99901.00;105438;1270;73543;-72
2022/10/05 09:23:25;;;;;;;13.20;4.80;;;;;;;14.46;69.53;99895.18;105271;1270;60454;-73
2022/10/05 09:26:39;;;;;;;11.80;4.90;;;;;;;14.52;70.20;99895.19;105454;1270;60451;-72
2022/10/05 09:29:46;;;;;;;9.40;4.40;;;;;;;14.64;70.11;99904.74;105222;1270;75730;-73
2022/10/05 09:32:52;;;;;;;10.70;4.30;;;;;;;14.87;69.75;99902.77;105598;1270;69378;-73
2022/10/05 09:36:02;;;;;;;12.50;4.60;;;;;;;15.07;68.85;99900.04;105168;1270;74468;-73
2022/10/05 09:39:15;;;;;;;10.30;5.00;;;;;;;15.13;68.21;99900.83;105450;1270;60364;-72
2022/10/05 09:43:26;;;;;;;8.30;3.70;;;;;;;15.32;68.05;99905.62;105345;1270;60947;-73
2022/10/05 09:46:41;;;;;;;12.20;4.70;;;;;;;15.52;66.75;99905.56;105311;1270;73975;-72
2022/10/05 09:49:57;;;;;;;13.60;4.10;;;;;;;16.01;65.82;99905.45;105220;1270;69419;-71
2022/10/05 09:52:59;;;;;;;10.40;4.00;;;;;;;16.69;63.37;99901.60;105253;1270;74279;-71
2022/10/05 09:56:14;;;;;;;11.90;4.10;;;;;;;16.53;62.82;99909.21;105266;1270;60594;-72
2022/10/05 09:59:42;;;;;;;11.40;4.50;;;;;;;16.33;63.27;99908.25;105378;1269;61495;-71
2022/10/05 10:02:54;;;;;;;10.00;3.80;;;;;;;16.28;63.90;99906.59;105199;1270;74305;-73
2022/10/05 10:05:48;;;;;;;11.40;4.00;;;;;;;16.05;64.00;99903.41;105430;1268;68253;-75
2022/10/05 10:09:06;;;;;;;10.70;3.80;;;;;;;15.83;64.40;99905.28;105328;1270;73316;-76
2022/10/05 10:12:18;;;;;;;10.80;4.50;;;;;;;15.74;65.08;99908.04;105313;1270;60539;-75
2022/10/05 10:15:41;;;;;;;12.80;4.20;;;;;;;15.69;65.60;99905.85;105171;1270;61983;-75
2022/10/05 10:18:51;;;;;;;13.50;4.80;;;;;;;15.73;65.69;99902.05;105317;1270;74377;-75
2022/10/05 10:22:31;;;;;;;9.00;3.70;;;;;;;15.77;65.19;99899.33;105158;1270;68618;-76
2022/10/05 10:25:22;;;;;;;10.80;4.10;;;;;;;15.73;65.44;99902.87;105340;1269;74227;-75
2022/10/05 10:28:38;;;;;;;10.10;3.80;;;;;;;15.98;64.93;99899.80;105360;1270;60541;-76
2022/10/05 10:32:09;;;;;;;10.70;3.90;;;;;;;16.55;63.47;99892.52;105771;1269;62132;-76
2022/10/05 10:35:40;;;;;;;10.20;3.90;;;;;;;16.78;61.31;99894.48;105199;1270;75463;-76
2022/10/05 10:38:50;;;;;;;10.70;3.60;;;;;;;17.00;61.06;99889.02;105308;1270;68518;-76
2022/10/05 10:41:59;;;;;;;10.50;3.90;;;;;;;17.34;59.36;99877.12;105307;1270;74044;-76
2022/10/05 10:45:12;;;;;;;10.10;3.50;;;;;;;17.66;58.68;99871.78;105296;1270;59784;-76
2022/10/05 10:48:09;;;;;;;12.50;3.90;;;;;;;17.65;58.31;99872.09;105516;1270;60451;-75
2022/10/05 10:51:35;;;;;;;10.60;3.40;;;;;;;17.65;57.59;99875.16;105463;1270;74298;-75
2022/10/05 10:55:04;;;;;;;9.50;3.30;;;;;;;18.04;57.68;99876.48;105246;1270;69437;-74
2022/10/05 10:58:56;;;;;;;11.60;3.80;;;;;;;18.08;55.64;99861.50;105542;1270;74238;-75
2022/10/05 11:02:21;;;;;;;8.70;3.60;;;;;;;18.16;55.30;99866.13;105654;1270;60492;-76
2022/10/05 11:06:00;;;;;;;12.10;4.00;;;;;;;18.35;54.62;99872.17;105416;1270;61530;-76
2022/10/05 11:09:22;;;;;;;12.00;4.30;;;;;;;17.97;55.16;99867.85;105644;1270;75721;-76
2022/10/05 11:13:02;;;;;;;11.30;4.10;;;;;;;17.86;56.17;99870.19;105306;1270;68509;-76
2022/10/05 11:16:35;;;;;;;9.50;3.60;;;;;;;17.68;56.66;99867.78;104805;1276;72295;-74
2022/10/05 11:19:48;;;;;;;10.50;3.40;;;;;;;17.69;56.45;99877.06;105025;1276;60681;-78
2022/10/05 11:23:17;;;;;;;10.60;3.70;;;;;;;17.57;56.94;99875.54;104752;1276;60579;-77
2022/10/05 11:26:41;;;;;;;11.10;3.70;;;;;;;17.48;57.73;99872.58;104937;1275;73831;-75
2022/10/05 11:30:01;;;;;;;8.40;3.60;;;;;;;17.41;58.00;99868.98;104759;1276;66821;-73
2022/10/05 11:33:23;;;;;;;10.50;3.60;;;;;;;17.16;58.80;99862.52;105024;1276;71563;-76
2022/10/05 11:36:52;;;;;;;11.00;4.40;;;;;;;17.02;59.23;99859.79;104850;1276;60698;-76
2022/10/05 11:40:12;;;;;;;9.40;3.40;;;;;;;17.05;59.49;99858.83;104891;1274;60944;-78
2022/10/05 11:43:37;;;;;;;13.60;4.00;;;;;;;17.08;60.03;99865.81;104825;1276;74520;-76
2022/10/05 11:47:03;;;;;;;11.10;3.70;;;;;;;16.99;59.37;99864.70;104775;1276;66917;-77
2022/10/05 11:49:58;;;;;;;10.50;3.60;;;;;;;16.78;59.89;99860.16;105029;1276;72235;-75
2022/10/05 11:52:59;;;;;;;10.60;3.50;;;;;;;16.78;60.47;99860.90;104986;1270;60558;-77
2022/10/05 11:56:12;;;;;;;11.60;4.20;;;;;;;16.84;59.87;99859.38;105477;1270;61239;-75
2022/10/05 11:59:25;;;;;;;9.90;4.00;;;;;;;16.89;59.56;99860.84;105330;1270;74099;-75
2022/10/05 12:02:45;;;;;;;11.00;4.20;;;;;;;16.99;59.65;99865.45;105139;1270;66932;-75
2022/10/05 12:06:07;;;;;;;12.40;4.20;;;;;;;16.92;59.31;99863.70;105394;1270;73924;-75
2022/10/05 12:09:17;;;;;;;9.60;3.70;;;;;;;16.77;59.90;99868.17;105508;1270;60456;-75
2022/10/05 12:12:20;;;;;;;10.50;4.10;;;;;;;16.67;60.76;99867.24;105067;1270;60618;-76
2022/10/05 12:15:28;;;;;;;9.50;3.80;;;;;;;16.60;60.74;99865.24;105169;1270;74117;-75
2022/10/05 12:18:28;;;;;;;9.70;3.50;;;;;;;16.49;61.32;99863.56;105545;1270;67650;-76
2022/10/05 12:21:55;;;;;;;9.70;4.20;;;;;;;16.41;61.93;99862.98;105467;1270;73917;-76
2022/10/05 12:25:01;;;;;;;9.10;4.10;;;;;;;16.25;62.38;99862.13;105266;1270;60500;-75
2022/10/05 12:27:55;;;;;;;9.70;3.80;;;;;;;16.10;62.85;99868.50;105227;1270;60653;-76
2022/10/05 12:31:07;;;;;;;9.70;3.80;;;;;;;16.02;63.29;99860.48;105193;1270;74105;-76
2022/10/05 12:34:03;;;;;;;11.70;3.90;;;;;;;16.03;63.67;99859.44;105401;1270;66595;-75
2022/10/05 12:37:37;;;;;;;9.30;3.60;;;;;;;16.14;63.72;99856.17;105334;1270;74423;-77
2022/10/05 12:40:51;;;;;;;8.70;3.70;;;;;;;16.27;63.34;99862.34;105702;1270;60563;-79
2022/10/05 12:43:52;;;;;;;9.80;2.90;;;;;;;16.30;63.28;99871.65;105310;1270;60504;-76
2022/10/05 12:46:42;;;;;;;10.20;3.30;;;;;;;16.41;63.28;99870.48;105217;1270;71767;-76
2022/10/05 12:49:42;;;;;;;12.10;4.00;;;;;;;16.51;62.97;99873.02;105149;1270;68968;-77
2022/10/05 12:53:22;;;;;;;10.60;3.60;;;;;;;16.57;62.60;99872.39;105422;1270;73751;-74
2022/10/05 12:56:48;;;;;;;8.20;3.50;;;;;;;16.74;62.37;99867.10;105154;1268;60456;-75
2022/10/05 12:59:58;;;;;;;10.00;3.60;;;;;;;16.79;62.46;99872.45;105307;1270;60431;-76
2022/10/05 13:02:53;;;;;;;9.20;3.80;;;;;;;16.83;62.12;99869.50;105255;1269;74199;-75
2022/10/05 13:06:06;;;;;;;9.30;3.60;;;;;;;16.79;61.82;99866.73;105284;1270;69479;-78
2022/10/05 13:09:10;;;;;;;11.00;3.50;;;;;;;16.66;61.75;99861.84;106110;1269;74394;-74
2022/10/05 13:12:12;;;;;;;10.80;3.40;;;;;;;16.56;62.17;99852.16;105505;1267;60573;-78
2022/10/05 13:15:13;;;;;;;16.20;4.40;;;;;;;16.48;62.44;99851.88;105266;1267;60419;-76
2022/10/05 13:18:24;;;;;;;12.70;3.70;;;;;;;16.38;62.56;99857.56;105594;1267;72926;-76
2022/10/05 13:21:28;;;;;;;10.40;3.60;;;;;;;16.27;62.83;99849.76;105318;1274;67779;-75
2022/10/05 13:24:33;;;;;;;11.60;3.60;;;;;;;16.26;63.24;99852.23;105498;1274;71680;-76
2022/10/05 13:27:28;;;;;;;9.90;3.60;;;;;;;16.22;63.71;99856.89;105098;1274;60644;-76
2022/10/05 13:30:19;;;;;;;10.40;3.60;;;;;;;16.06;63.91;99849.61;105129;1274;60904;-76
2022/10/05 13:33:32;;;;;;;11.50;3.70;;;;;;;16.01;64.16;99846.42;104976;1274;72509;-74
2022/10/05 13:36:44;;;;;;;12.30;4.00;;;;;;;15.98;64.45;99841.54;104896;1274;66913;-75
2022/10/05 13:40:02;;;;;;;9.00;3.50;;;;;;;16.00;64.80;99835.71;104867;1274;72906;-75
2022/10/05 13:43:04;;;;;;;9.70;3.70;;;;;;;16.06;64.98;99831.98;105571;1273;60457;-77
2022/10/05 13:46:27;;;;;;;10.00;4.10;;;;;;;16.05;64.93;99834.36;104872;1274;60808;-76
2022/10/05 13:49:22;;;;;;;10.20;3.90;;;;;;;16.08;65.06;99835.13;104885;1273;74363;-79
2022/10/05 13:52:36;;;;;;;10.10;4.30;;;;;;;16.03;65.38;99836.50;105000;1273;68557;-75
2022/10/05 13:55:48;;;;;;;13.70;3.50;;;;;;;16.00;65.76;99834.90;104875;1273;74679;-78
2022/10/05 13:59:19;;;;;;;9.30;3.70;;;;;;;15.89;66.05;99839.25;105139;1267;60870;-77
2022/10/05 14:02:41;;;;;;;13.40;4.10;;;;;;;15.85;66.40;99833.08;105175;1267;61152;-77
2022/10/05 14:05:30;;;;;;;9.30;3.40;;;;;;;15.82;66.58;99838.67;105593;1267;75340;-78
2022/10/05 14:08:18;;;;;;;12.70;4.50;;;;;;;15.75;66.71;99838.67;105263;1267;68087;-75
2022/10/05 14:11:35;;;;;;;10.60;3.50;;;;;;;15.66;67.06;99838.50;105574;1267;72744;-75
2022/10/05 14:14:30;;;;;;;9.10;3.80;;;;;;;15.59;67.33;99838.53;105200;1267;60538;-80
2022/10/05 14:17:42;;;;;;;11.70;4.30;;;;;;;15.52;67.86;99832.64;105235;1267;61840;-77
2022/10/05 14:20:33;;;;;;;14.60;4.30;;;;;;;15.42;68.34;99833.58;105500;1267;74025;-76
2022/10/05 14:23:25;;;;;;;14.20;4.90;;;;;;;15.31;68.71;99829.15;105314;1267;67074;-78
2022/10/05 14:26:31;;;;;;;10.10;4.30;;;;;;;15.26;68.97;99830.97;105284;1267;72889;-76
2022/10/05 14:29:34;;;;;;;9.40;4.00;;;;;;;15.19;69.43;99837.18;105533;1267;60419;-75
2022/10/05 14:32:24;;;;;;;10.30;4.40;;;;;;;15.13;69.73;99836.70;105751;1267;60112;-75
2022/10/05 14:35:16;;;;;;;12.50;4.30;;;;;;;15.08;69.99;99838.50;105239;1267;75772;-75
2022/10/05 14:38:28;;;;;;;10.60;4.30;;;;;;;15.03;70.33;99839.92;105129;1268;66949;-74
2022/10/05 14:41:21;;;;;;;10.90;4.30;;;;;;;14.94;70.57;99842.02;105528;1267;73329;-74